Latest Weather Observations for Bickley

IDW60901

Issued at 6:51 pm WST Thursday 17 January 2019 (issued every 10 minutes, with the page automatically refreshed every 10 minutes)

About weather observations | Map of Perth area stations | Latest observations for Perth area | Other Formats
Station Details ID: 009240 Name: BICKLEY Lat: -32.01 Lon: 116.14 Height: 384.0 m
Data from the previous 72 hours. | See also: Recent months at Bickley
Date/Time
WST
Temp
°C
App
Temp
°C
Dew
Point
°C
Rel
Hum
%
Delta-T
°C
Wind Press
QNH
hPa
Press
MSL
hPa
Rain since
9am
mm
Dir  Spd
km/h
Gust
km/h
Spd
kts
Gust
kts
17/06:30pm 20.6 17.8 13.3 63 4.2 SW 20 30 11 16 - - 0.0
17/06:00pm 21.4 18.5 12.8 58 5.0 SW 20 28 11 15 - - 0.0
17/05:30pm 22.1 19.7 12.6 55 5.5 SW 17 28 9 15 - - 0.0
17/05:00pm 22.2 19.4 12.5 54 5.6 SW 19 30 10 16 - - 0.0
17/04:30pm 22.7 20.0 11.7 49 6.3 SW 17 30 9 16 - - 0.0
17/04:00pm 22.4 19.3 11.5 50 6.2 SW 19 32 10 17 - - 0.0
17/03:30pm 23.7 20.8 12.4 49 6.6 WSW 19 33 10 18 - - 0.0
17/03:00pm 23.6 20.0 12.9 51 6.3 WSW 24 39 13 21 - - 0.0
17/02:30pm 23.5 20.4 13.4 53 6.0 W 22 39 12 21 - - 0.0
17/02:00pm 23.9 20.9 13.7 53 6.1 WSW 22 41 12 22 - - 0.0
17/01:30pm 24.7 21.6 13.3 49 6.8 W 22 41 12 22 - - 0.0
17/01:00pm 25.1 22.4 11.6 42 7.8 WSW 17 32 9 17 - - 0.0
17/12:30pm 24.4 22.8 11.4 44 7.5 W 11 24 6 13 - - 0.0
17/12:00pm 23.4 21.5 10.5 44 7.2 WSW 11 22 6 12 - - 0.0
17/11:30am 23.7 21.8 11.7 47 6.9 SSW 13 22 7 12 - - 0.0
17/11:00am 22.5 21.3 11.6 50 6.2 SSW 9 17 5 9 - - 0.0
17/10:30am 21.9 20.9 12.2 54 5.6 WSW 9 20 5 11 - - 0.0
17/10:00am 20.3 19.2 11.8 58 4.8 S 9 17 5 9 - - 0.0
17/09:30am 19.4 18.6 11.7 61 4.3 SSW 7 15 4 8 - - 0.0
17/09:00am 18.9 17.8 11.9 64 3.9 S 9 13 5 7 - - 0.0
17/08:30am 18.6 17.1 11.9 65 3.8 S 11 20 6 11 - - 0.0
17/08:00am 17.5 16.4 11.8 69 3.2 SSE 9 17 5 9 - - 0.0
17/07:30am 15.9 14.2 11.3 74 2.5 S 11 17 6 9 - - 0.0
17/07:00am 15.0 12.9 11.2 78 2.1 S 13 20 7 11 - - 0.0
17/06:30am 13.8 11.2 10.6 81 1.7 S 15 24 8 13 - - 0.0
17/06:00am 12.9 9.9 10.6 86 1.2 SSE 17 26 9 14 - - 0.0
17/05:30am 12.6 9.6 10.7 88 1.0 S 17 26 9 14 - - 0.0
17/05:00am 12.7 9.7 10.8 88 1.0 S 17 28 9 15 - - 0.0
17/04:30am 12.8 9.9 11.0 89 1.0 SSW 17 26 9 14 - - 0.0
17/04:00am 13.0 10.2 11.2 89 1.0 S 17 24 9 13 - - 0.0
17/03:30am 13.3 10.5 11.5 89 1.0 S 17 24 9 13 - - 0.0
17/03:00am 13.4 10.7 11.6 89 1.0 SSW 17 26 9 14 - - 0.0
17/02:30am 13.7 11.1 11.9 89 1.0 SSW 17 24 9 13 - - 0.0
17/02:00am 13.8 11.3 12.2 90 0.9 SSW 17 24 9 13 - - 0.0
17/01:30am 14.0 11.5 12.4 90 0.9 SSW 17 26 9 14 - - 0.0
17/01:00am 14.2 11.2 12.6 90 0.9 SSW 20 28 11 15 - - 0.0
17/12:30am 14.4 11.6 12.6 89 1.0 SSW 19 28 10 15 - - 0.0
17/12:00am 14.5 11.5 12.7 89 1.0 SSW 20 32 11 17 - - 0.0
 
Date/Time
WST
Temp
°C
App
Temp
°C
Dew
Point
°C
Rel
Hum
%
Delta-T
°C
Wind Press
QNH
hPa
Press
MSL
hPa
Rain since
9am
mm
Dir  Spd
km/h
Gust
km/h
Spd
kts
Gust
kts
16/11:30pm 14.6 11.6 12.6 88 1.1 SW 20 30 11 16 - - 0.0
16/11:00pm 14.8 11.4 12.5 86 1.3 SW 22 33 12 18 - - 0.0
16/10:30pm 14.9 11.3 12.0 83 1.6 SW 22 30 12 16 - - 0.0
16/10:00pm 15.1 11.5 11.7 80 1.9 SW 22 30 12 16 - - 0.0
16/09:30pm 15.6 11.9 11.6 77 2.2 SW 22 33 12 18 - - 0.0
16/09:00pm 16.1 12.6 10.8 71 2.9 SW 20 30 11 16 - - 0.0
16/08:30pm 16.7 12.7 10.5 67 3.4 SW 22 33 12 18 - - 0.0
16/08:00pm 17.4 13.8 10.5 64 3.8 SW 20 32 11 17 - - 0.0
16/07:30pm 18.4 14.5 10.8 61 4.2 SW 22 33 12 18 - - 0.0
16/07:00pm 19.3 15.8 10.8 58 4.7 SW 20 33 11 18 - - 0.0
16/06:30pm 20.7 16.7 10.5 52 5.6 SW 22 33 12 18 - - 0.0
16/06:00pm 21.6 17.5 11.3 52 5.8 SW 24 32 13 17 - - 0.0
16/05:30pm 21.8 17.5 10.9 50 6.1 SW 24 41 13 22 - - 0.0
16/05:00pm 22.8 18.6 11.2 48 6.6 SW 24 39 13 21 - - 0.0
16/04:30pm 23.4 18.8 11.1 46 7.0 SW 26 41 14 22 - - 0.0
16/04:00pm 24.4 20.4 11.7 45 7.3 WSW 24 41 13 22 - - 0.0
16/03:30pm 24.3 20.0 11.9 45 7.2 SW 26 39 14 21 - - 0.0
16/03:00pm 25.5 21.4 11.3 41 8.2 WSW 24 41 13 22 - - 0.0
16/02:30pm 25.7 22.1 11.8 42 8.1 SW 22 41 12 22 - - 0.0
16/02:00pm 26.4 22.4 11.7 40 8.5 WSW 24 41 13 22 - - 0.0
16/01:30pm 25.5 22.4 11.7 42 8.0 WSW 19 32 10 17 - - 0.0
16/01:00pm 25.9 22.2 11.6 40 8.3 WSW 22 33 12 18 - - 0.0
16/12:30pm 26.6 24.7 9.0 33 9.8 SSW 9 20 5 11 - - 0.0
16/12:00pm 25.9 24.1 9.3 35 9.2 SW 9 24 5 13 - - 0.0
16/11:30am 24.9 23.8 10.8 41 8.0 SSW 7 11 4 6 - - 0.0
16/11:00am 23.2 22.0 10.3 44 7.2 SSW 7 17 4 9 - - 0.0
16/10:30am 23.4 22.1 11.1 46 7.0 ESE 9 22 5 12 - - 0.0
16/10:00am 22.7 21.4 11.4 49 6.4 ESE 9 17 5 9 - - 0.0
16/09:30am 21.2 19.5 11.2 53 5.6 ESE 11 22 6 12 - - 0.0
16/09:00am 20.3 18.2 11.2 56 5.1 SE 13 22 7 12 - - 0.0
16/08:30am 19.4 15.9 10.9 58 4.7 ESE 20 32 11 17 - - 0.0
16/08:00am 18.5 14.6 10.8 61 4.2 E 22 33 12 18 - - 0.0
16/07:30am 17.4 13.9 11.0 66 3.5 ESE 20 32 11 17 - - 0.0
16/07:00am 15.8 12.1 10.3 70 3.0 ESE 20 32 11 17 - - 0.0
16/06:30am 14.7 11.2 10.1 74 2.4 ESE 19 30 10 16 - - 0.0
16/06:00am 13.6 10.4 9.8 78 2.0 SE 17 28 9 15 - - 0.0
16/05:30am 13.5 10.6 9.6 77 2.0 SE 15 22 8 12 - - 0.0
16/05:00am 13.9 10.6 9.7 76 2.2 ESE 17 26 9 14 - - 0.0
16/04:30am 14.3 11.0 9.7 74 2.4 ESE 17 28 9 15 - - 0.0
16/04:00am 14.5 10.9 9.7 73 2.5 ESE 19 35 10 19 - - 0.0
16/03:30am 15.1 12.2 9.7 70 2.9 ESE 15 24 8 13 - - 0.0
16/03:00am 15.7 12.1 9.8 68 3.1 ESE 19 30 10 16 - - 0.0
16/02:30am 16.0 12.3 10.1 68 3.2 ESE 20 32 11 17 - - 0.0
16/02:00am 16.2 12.6 10.5 69 3.1 SE 20 30 11 16 - - 0.0
16/01:30am 16.2 13.8 11.4 73 2.6 SE 15 24 8 13 - - 0.0
16/01:00am 16.1 13.8 11.7 75 2.4 SE 15 24 8 13 - - 0.0
16/12:30am 16.0 13.4 12.0 77 2.2 S 17 22 9 12 - - 0.0
16/12:00am 16.0 13.8 12.2 78 2.1 SSW 15 20 8 11 - - 0.0
 
Date/Time
WST
Temp
°C
App
Temp
°C
Dew
Point
°C
Rel
Hum
%
Delta-T
°C
Wind Press
QNH
hPa
Press
MSL
hPa
Rain since
9am
mm
Dir  Spd
km/h
Gust
km/h
Spd
kts
Gust
kts
15/11:30pm 16.4 13.9 12.2 76 2.3 SW 17 26 9 14 - - 0.0
15/11:00pm 16.6 14.1 12.4 76 2.4 SW 17 24 9 13 - - 0.0
15/10:30pm 16.9 14.4 12.4 75 2.5 SW 17 26 9 14 - - 0.0
15/10:00pm 17.2 14.2 12.5 74 2.7 SW 20 28 11 15 - - 0.0
15/09:30pm 17.5 14.5 12.6 73 2.8 SW 20 28 11 15 - - 0.0
15/09:00pm 17.7 14.7 12.6 72 2.9 SW 20 30 11 16 - - 0.0
15/08:30pm 18.0 15.1 12.9 72 2.9 SW 20 28 11 15 - - 0.0
15/08:00pm 18.7 15.9 13.1 70 3.2 SW 20 30 11 16 - - 0.0
15/07:30pm 19.5 16.3 13.0 66 3.7 SW 22 30 12 16 - - 0.0
15/07:00pm 20.6 17.8 13.1 62 4.3 SW 20 30 11 16 - - 0.0
15/06:30pm 21.9 19.0 13.0 57 5.2 SW 20 32 11 17 - - 0.0
15/06:00pm 23.1 20.2 13.0 53 5.9 WSW 20 32 11 17 - - 0.0
15/05:30pm 24.3 21.1 13.2 50 6.6 WSW 22 32 12 17 - - 0.0
15/05:00pm 25.3 22.1 13.2 47 7.2 WSW 22 33 12 18 - - 0.0
15/04:30pm 25.8 22.9 13.0 45 7.6 SW 20 32 11 17 - - 0.0
15/04:00pm 26.9 24.2 12.9 42 8.3 WSW 19 30 10 16 - - 0.0
15/03:30pm 27.0 24.2 12.6 41 8.5 WSW 19 30 10 16 - - 0.0
15/03:00pm 28.7 25.9 12.6 37 9.6 WSW 19 32 10 17 - - 0.0
15/02:30pm 28.5 26.8 9.7 31 10.7 SSW 9 13 5 7 - - 0.0
15/02:00pm 28.4 26.8 10.1 32 10.5 SW 9 24 5 13 - - 0.0
15/01:30pm 26.6 24.8 9.5 34 9.6 S 9 20 5 11 - - 0.0
15/01:00pm 27.6 26.2 10.8 35 9.7 SE 9 17 5 9 - - 0.0
15/12:30pm 27.4 25.9 10.6 35 9.6 ESE 9 22 5 12 - - 0.0
15/12:00pm 25.4 23.9 10.4 39 8.5 SSE 9 20 5 11 - - 0.0
15/11:30am 25.0 23.2 10.8 41 8.1 ESE 11 22 6 12 - - 0.0
15/11:00am 24.0 21.8 10.7 43 7.5 E 13 24 7 13 - - 0.0
15/10:30am 22.4 20.2 10.9 48 6.5 ESE 13 28 7 15 - - 0.0
15/10:00am 21.2 18.2 10.7 51 5.9 E 17 28 9 15 - - 0.0
15/09:30am 20.5 17.0 10.3 52 5.6 ESE 19 30 10 16 - - 0.0
15/09:00am 19.4 15.1 10.7 57 4.8 E 24 39 13 21 - - 0.0
15/08:30am 18.5 14.5 10.3 59 4.5 E 22 41 12 22 - - 0.0
15/08:00am 17.5 12.8 10.6 64 3.8 ESE 26 43 14 23 - - 0.0
15/07:30am 16.4 12.0 10.3 67 3.3 E 24 43 13 23 - - 0.0
15/07:06am 15.3 10.0 9.9 70 2.9 E 28 50 15 27 - - 0.0
15/07:00am 15.7 11.0 10.5 71 2.8 E 26 44 14 24 - - 0.0
15/06:30am 14.1 8.7 9.5 74 2.4 E 28 46 15 25 - - 0.0
15/06:17am 13.6 8.2 9.5 76 2.1 E 28 46 15 25 - - 0.0
15/06:00am 13.3 8.3 9.4 77 2.0 E 26 41 14 22 - - 0.0
15/05:49am 13.3 7.9 9.4 77 2.0 E 28 48 15 26 - - 0.0
15/05:30am 13.3 8.3 9.4 77 2.0 ESE 26 44 14 24 - - 0.0
15/05:10am 13.5 8.1 9.4 76 2.1 ESE 28 46 15 25 - - 0.0
15/05:00am 13.7 9.0 9.4 75 2.2 ESE 24 41 13 22 - - 0.0
15/04:30am 14.2 9.5 9.4 73 2.5 ESE 24 44 13 24 - - 0.0
15/04:00am 14.7 9.7 9.5 71 2.7 ESE 26 39 14 21 - - 0.0
15/03:30am 15.2 10.6 9.6 69 3.0 ESE 24 33 13 18 - - 0.0
15/03:00am 15.6 12.3 9.5 67 3.2 ESE 17 28 9 15 - - 0.0
15/02:30am 16.1 12.4 9.5 65 3.5 ESE 19 33 10 18 - - 0.0
15/02:00am 16.5 12.7 9.2 62 3.9 SE 19 32 10 17 - - 0.0
15/01:30am 16.8 13.0 9.2 61 4.0 SE 19 28 10 15 - - 0.0
15/01:00am 17.1 13.7 9.3 60 4.1 SE 17 35 9 19 - - 0.0
15/12:30am 17.5 13.9 10.4 63 3.9 SSE 20 33 11 18 - - 0.0
15/12:00am 17.7 15.3 11.5 67 3.4 S 15 24 8 13 - - 0.0
 
Date/Time
WST
Temp
°C
App
Temp
°C
Dew
Point
°C
Rel
Hum
%
Delta-T
°C
Wind Press
QNH
hPa
Press
MSL
hPa
Rain since
9am
mm
Dir  Spd
km/h
Gust
km/h
Spd
kts
Gust
kts
14/11:30pm 17.7 15.6 12.4 71 3.0 S 15 24 8 13 - - 0.0
14/11:00pm 17.7 15.3 12.6 72 2.9 SSW 17 24 9 13 - - 0.0
14/10:30pm 17.7 15.0 12.8 73 2.8 SSW 19 26 10 14 - - 0.0
14/10:00pm 17.7 15.2 12.4 71 3.0 SW 17 24 9 13 - - 0.0
14/09:30pm 17.9 15.5 12.8 72 2.9 SW 17 26 9 14 - - 0.0
14/09:00pm 18.2 15.5 12.9 71 3.0 SW 19 26 10 14 - - 0.0
14/08:30pm 18.8 15.9 13.0 69 3.3 SW 20 30 11 16 - - 0.0
14/08:00pm 19.6 16.7 12.8 65 3.9 SW 20 26 11 14 - - 0.0
14/07:30pm 20.3 17.4 13.0 63 4.2 SW 20 30 11 16 - - 0.0
14/07:00pm 21.1 17.8 12.8 59 4.8 SW 22 32 12 17 - - 0.0

Latest Capital City Observations: Canberra | Sydney | Melbourne | Brisbane | Adelaide | Perth | Hobart | Darwin

Other Formats:

Comma delimited format used in spreadsheet applications
http://www.bom.gov.au/fwo/IDW60901/IDW60901.95610.axf

JavaScript Object Notation format (JSON) in row-major order
http://www.bom.gov.au/fwo/IDW60901/IDW60901.95610.json